Time;durP1;ratioP1;P1;durP2;ratioP2;P2;SDS_P1;SDS_P2;PMS_P1;PMS_P2;Temp;Humidity;BMP_temperature;BMP_pressure;BME280_temperature;BME280_humidity;BME280_pressure;Samples;Min_cycle;Max_cycle;Signal;HPM_P1;HPM_P2
2023/09/03 00:01:28;;;;;;;12.40;5.93;;;;;;;14.82;100.00;102403.00;5077982;28;20080;-63
2023/09/03 00:03:56;;;;;;;10.20;5.53;;;;;;;14.81;100.00;102405.72;5070195;28;20935;-63
2023/09/03 00:06:25;;;;;;;9.32;5.78;;;;;;;14.82;100.00;102396.81;5068544;28;20048;-63
2023/09/03 00:08:53;;;;;;;9.05;6.03;;;;;;;14.81;100.00;102401.28;5067391;28;20181;-63
2023/09/03 00:11:22;;;;;;;12.35;6.20;;;;;;;14.82;100.00;102392.41;5068664;28;20040;-63
2023/09/03 00:13:50;;;;;;;10.20;5.93;;;;;;;14.83;100.00;102406.47;5071696;28;20039;-63
2023/09/03 00:16:19;;;;;;;9.35;6.10;;;;;;;14.79;100.00;102413.78;5069214;28;20054;-63
2023/09/03 00:18:48;;;;;;;8.73;5.63;;;;;;;14.79;100.00;102415.53;5077172;28;20566;-63
2023/09/03 00:21:17;;;;;;;9.18;5.57;;;;;;;14.71;100.00;102415.97;5070252;28;20140;-63
2023/09/03 00:23:45;;;;;;;8.40;5.65;;;;;;;14.66;100.00;102416.25;5066250;28;20064;-63
2023/09/03 00:26:19;;;;;;;10.88;6.40;;;;;;;14.63;100.00;102419.09;5068405;28;20545;-63
2023/09/03 00:28:47;;;;;;;9.32;5.63;;;;;;;14.54;100.00;102420.41;5071291;28;20056;-63
2023/09/03 00:31:16;;;;;;;11.65;6.40;;;;;;;14.56;100.00;102425.66;5073913;28;20047;-63
2023/09/03 00:33:44;;;;;;;9.77;6.38;;;;;;;14.54;100.00;102419.59;5072426;28;20048;-63
2023/09/03 00:36:14;;;;;;;9.82;6.20;;;;;;;14.44;100.00;102418.38;5082130;28;20048;-63
2023/09/03 00:38:43;;;;;;;8.93;6.22;;;;;;;14.43;100.00;102420.19;5077424;28;20047;-63
2023/09/03 00:41:11;;;;;;;9.02;5.70;;;;;;;14.39;100.00;102426.59;5085529;28;20387;-63
2023/09/03 00:43:40;;;;;;;8.85;6.22;;;;;;;14.41;100.00;102429.16;5081498;28;20052;-63
2023/09/03 00:46:09;;;;;;;12.02;6.55;;;;;;;14.27;100.00;102429.94;5068715;28;20052;-63
2023/09/03 00:48:40;;;;;;;9.45;6.38;;;;;;;14.24;100.00;102433.59;5066814;28;20058;-63
2023/09/03 00:51:10;;;;;;;11.45;6.38;;;;;;;14.22;100.00;102438.13;5070831;28;20040;-62
2023/09/03 00:53:42;;;;;;;10.27;6.95;;;;;;;14.22;100.00;102431.97;5070755;28;20076;-63
2023/09/03 00:56:11;;;;;;;11.65;6.97;;;;;;;14.26;100.00;102437.03;5068458;28;20528;-63
2023/09/03 00:58:41;;;;;;;11.38;6.53;;;;;;;14.31;100.00;102424.38;5074115;28;20063;-62
2023/09/03 01:01:10;;;;;;;10.57;7.47;;;;;;;14.26;100.00;102418.50;5072418;28;20047;-62
2023/09/03 01:03:39;;;;;;;9.50;6.75;;;;;;;14.29;100.00;102415.69;5070705;28;20489;-55
2023/09/03 01:06:07;;;;;;;11.38;7.10;;;;;;;14.27;100.00;102412.25;5068764;28;20044;-63
2023/09/03 01:08:37;;;;;;;9.63;6.82;;;;;;;14.16;100.00;102401.41;5066338;28;20060;-62
2023/09/03 01:11:22;;;;;;;13.77;7.75;;;;;;;14.12;100.00;102407.81;5068565;28;20052;-54
2023/09/03 01:14:01;;;;;;;10.23;7.32;;;;;;;14.16;100.00;102409.34;5068348;28;20040;-54
2023/09/03 01:16:34;;;;;;;10.88;7.40;;;;;;;14.16;100.00;102402.25;5068318;28;20056;-56
2023/09/03 01:19:27;;;;;;;12.65;7.88;;;;;;;14.13;100.00;102401.59;5071802;28;20074;-62
2023/09/03 01:22:06;;;;;;;11.55;7.63;;;;;;;14.08;100.00;102403.63;5072013;28;20054;-62
2023/09/03 01:24:51;;;;;;;11.07;7.60;;;;;;;14.08;100.00;102408.94;5071633;28;20087;-53
2023/09/03 01:27:46;;;;;;;12.35;8.20;;;;;;;14.03;100.00;102407.41;5070306;28;20557;-54
2023/09/03 01:30:17;;;;;;;11.88;8.20;;;;;;;13.99;100.00;102413.78;5069173;28;20127;-62
2023/09/03 01:32:47;;;;;;;12.05;8.27;;;;;;;13.97;100.00;102399.78;5067135;28;20503;-62
2023/09/03 01:35:17;;;;;;;11.52;8.32;;;;;;;13.96;100.00;102405.16;5071097;28;20049;-62
2023/09/03 01:37:46;;;;;;;13.07;8.85;;;;;;;13.99;100.00;102405.00;5071212;28;20044;-62
2023/09/03 01:40:15;;;;;;;12.90;8.75;;;;;;;14.01;100.00;102411.91;5069550;28;20453;-62
2023/09/03 01:42:43;;;;;;;14.13;8.85;;;;;;;13.97;100.00;102415.66;5070756;28;20052;-62
2023/09/03 01:45:12;;;;;;;13.25;8.73;;;;;;;13.98;100.00;102417.38;5071640;28;20040;-62
2023/09/03 01:47:49;;;;;;;12.65;8.88;;;;;;;13.97;100.00;102428.88;5074583;28;20115;-62
2023/09/03 01:50:24;;;;;;;12.15;8.73;;;;;;;14.05;100.00;102430.28;5067597;28;20057;-62
2023/09/03 01:53:04;;;;;;;12.27;8.25;;;;;;;14.03;100.00;102428.56;5067036;28;20044;-62
2023/09/03 01:55:37;;;;;;;11.68;8.05;;;;;;;14.00;100.00;102434.03;5081032;28;20072;-62
2023/09/03 01:58:08;;;;;;;12.25;8.63;;;;;;;14.06;100.00;102431.94;5080721;28;20054;-62
2023/09/03 02:00:39;;;;;;;11.05;7.88;;;;;;;14.05;100.00;102425.81;5085077;28;20044;-62
2023/09/03 02:03:11;;;;;;;14.05;8.63;;;;;;;14.07;100.00;102423.97;5050410;28;20053;-62
2023/09/03 02:05:40;;;;;;;13.15;7.55;;;;;;;14.06;100.00;102426.66;5069591;28;20047;-62
2023/09/03 02:08:08;;;;;;;11.68;8.20;;;;;;;14.07;100.00;102426.59;5065746;28;20721;-62
2023/09/03 02:10:37;;;;;;;13.50;8.40;;;;;;;14.16;100.00;102427.88;5066690;28;20059;-62
2023/09/03 02:13:06;;;;;;;12.07;7.63;;;;;;;14.11;100.00;102421.97;5070764;28;20090;-62
2023/09/03 02:15:35;;;;;;;10.82;7.47;;;;;;;14.14;100.00;102430.63;5069464;28;20054;-62
2023/09/03 02:18:03;;;;;;;13.50;8.63;;;;;;;14.06;100.00;102424.00;5068071;28;20045;-62
2023/09/03 02:20:33;;;;;;;11.05;8.40;;;;;;;14.06;100.00;102422.25;5071095;28;20106;-62
2023/09/03 02:23:02;;;;;;;10.80;8.05;;;;;;;14.05;100.00;102441.69;5074117;28;20043;-62
2023/09/03 02:25:30;;;;;;;13.82;8.50;;;;;;;13.98;100.00;102437.69;5068532;28;20049;-62
2023/09/03 02:27:59;;;;;;;11.25;7.85;;;;;;;13.96;100.00;102429.84;5073983;28;20044;-62
2023/09/03 02:30:27;;;;;;;14.07;8.70;;;;;;;13.99;100.00;102442.88;5070988;28;20103;-62
2023/09/03 02:32:55;;;;;;;11.52;8.88;;;;;;;13.95;100.00;102444.00;5070339;28;20060;-62
2023/09/03 02:35:24;;;;;;;16.58;10.95;;;;;;;13.90;100.00;102437.25;5070205;28;20048;-62
2023/09/03 02:37:54;;;;;;;16.08;10.00;;;;;;;13.93;100.00;102434.44;5068806;28;20048;-62
2023/09/03 02:40:22;;;;;;;15.25;10.77;;;;;;;13.98;100.00;102432.41;5070424;28;20546;-62
2023/09/03 02:42:51;;;;;;;16.05;10.45;;;;;;;13.88;100.00;102416.19;5070714;28;20052;-62
2023/09/03 02:45:19;;;;;;;13.00;9.43;;;;;;;13.80;100.00;102419.22;5070563;28;20036;-62
2023/09/03 02:47:48;;;;;;;15.38;8.98;;;;;;;13.77;100.00;102411.47;5068768;28;20052;-62
2023/09/03 02:50:16;;;;;;;11.77;8.13;;;;;;;13.85;100.00;102414.56;5070638;28;20052;-62
2023/09/03 02:52:45;;;;;;;12.43;8.85;;;;;;;13.84;100.00;102399.63;5069486;28;20503;-62
2023/09/03 02:55:15;;;;;;;13.60;8.93;;;;;;;13.82;100.00;102400.63;5072575;28;20041;-62
2023/09/03 02:57:44;;;;;;;12.77;8.48;;;;;;;13.77;100.00;102387.66;5071795;28;20090;-62
2023/09/03 03:00:13;;;;;;;13.73;8.82;;;;;;;13.73;100.00;102367.63;5077187;28;20041;-62
2023/09/03 03:02:42;;;;;;;11.65;7.72;;;;;;;13.73;100.00;102382.63;5086310;28;20117;-62
2023/09/03 03:05:11;;;;;;;13.15;9.43;;;;;;;13.73;100.00;102385.25;5083112;28;20040;-62
2023/09/03 03:07:42;;;;;;;12.90;8.95;;;;;;;13.67;100.00;102392.59;5078601;28;20051;-62
2023/09/03 03:10:11;;;;;;;12.65;8.75;;;;;;;13.67;100.00;102402.31;5080784;28;20048;-62
2023/09/03 03:12:44;;;;;;;12.77;8.98;;;;;;;13.67;100.00;102410.25;5084034;28;20503;-62
2023/09/03 03:15:12;;;;;;;12.05;8.50;;;;;;;13.65;100.00;102420.91;5081974;28;20557;-62
2023/09/03 03:17:41;;;;;;;14.48;9.40;;;;;;;13.67;100.00;102424.34;5081575;28;20102;-62
2023/09/03 03:20:10;;;;;;;12.10;9.48;;;;;;;13.74;100.00;102416.91;5082075;28;20039;-62
2023/09/03 03:22:38;;;;;;;13.60;9.77;;;;;;;13.63;100.00;102417.50;5077479;28;20044;-61
2023/09/03 03:25:08;;;;;;;12.60;8.88;;;;;;;13.63;100.00;102430.72;5080451;28;20429;-61
2023/09/03 03:27:37;;;;;;;13.32;9.45;;;;;;;13.58;100.00;102435.38;5077590;28;20050;-62
2023/09/03 03:30:08;;;;;;;11.52;8.50;;;;;;;13.61;100.00;102450.22;5076861;28;20056;-61
2023/09/03 03:32:37;;;;;;;12.40;8.95;;;;;;;13.61;100.00;102458.16;5079135;28;20040;-62
2023/09/03 03:35:06;;;;;;;11.75;8.65;;;;;;;13.59;100.00;102457.38;5070807;28;20665;-61
2023/09/03 03:37:35;;;;;;;11.07;7.90;;;;;;;13.53;100.00;102463.84;5078749;28;20062;-61
2023/09/03 03:40:06;;;;;;;13.50;9.55;;;;;;;13.48;100.00;102455.28;5069395;28;20045;-61
2023/09/03 03:42:37;;;;;;;11.93;8.60;;;;;;;13.34;100.00;102459.47;5072639;28;20503;-61
2023/09/03 03:45:07;;;;;;;15.25;9.48;;;;;;;13.32;100.00;102457.81;5074183;28;20372;-61
2023/09/03 03:47:38;;;;;;;12.77;8.88;;;;;;;13.28;100.00;102458.91;5074875;28;20448;-63
2023/09/03 03:50:07;;;;;;;11.02;8.65;;;;;;;13.32;100.00;102453.41;5076577;28;20098;-61
2023/09/03 03:52:35;;;;;;;14.07;9.13;;;;;;;13.28;100.00;102454.50;5077752;28;20132;-61
2023/09/03 03:55:04;;;;;;;12.48;9.13;;;;;;;13.31;100.00;102459.63;5072628;28;20105;-61
2023/09/03 03:57:33;;;;;;;12.82;9.15;;;;;;;13.30;100.00;102454.44;5079491;28;20055;-62
2023/09/03 04:00:01;;;;;;;11.57;8.60;;;;;;;13.26;100.00;102451.06;5072117;28;20049;-61
2023/09/03 04:02:31;;;;;;;11.82;8.65;;;;;;;13.22;100.00;102454.81;5074973;28;20056;-61
2023/09/03 04:04:59;;;;;;;13.07;9.55;;;;;;;13.21;100.00;102457.53;5077979;28;20118;-62
2023/09/03 04:07:28;;;;;;;14.30;10.57;;;;;;;13.15;100.00;102464.81;5076526;28;20043;-61
2023/09/03 04:09:59;;;;;;;15.82;10.32;;;;;;;13.14;100.00;102467.53;5082042;28;20052;-61
2023/09/03 04:12:27;;;;;;;14.15;10.80;;;;;;;13.18;100.00;102474.38;5070271;28;20049;-61
2023/09/03 04:14:56;;;;;;;15.90;11.27;;;;;;;13.14;100.00;102468.41;5078490;28;20040;-62
2023/09/03 04:17:24;;;;;;;15.80;10.65;;;;;;;13.02;100.00;102469.03;5077035;28;20400;-61
2023/09/03 04:19:55;;;;;;;15.70;11.18;;;;;;;12.91;100.00;102472.22;5074851;28;20078;-61
2023/09/03 04:22:23;;;;;;;15.00;10.73;;;;;;;12.90;100.00;102481.06;5080557;28;20440;-61
2023/09/03 04:24:52;;;;;;;14.18;10.73;;;;;;;12.93;100.00;102478.25;5076251;28;20513;-61
2023/09/03 04:27:20;;;;;;;13.60;10.02;;;;;;;12.96;100.00;102472.81;5078724;28;20043;-61
2023/09/03 04:29:49;;;;;;;13.68;10.32;;;;;;;12.97;100.00;102474.53;5075522;28;20036;-61
2023/09/03 04:32:18;;;;;;;14.38;10.15;;;;;;;12.97;100.00;102477.16;5076738;28;20131;-61
2023/09/03 04:34:46;;;;;;;12.90;10.13;;;;;;;12.88;100.00;102477.63;5077787;28;20048;-61
2023/09/03 04:37:16;;;;;;;15.43;10.27;;;;;;;12.91;100.00;102482.78;5066699;28;20046;-60
2023/09/03 04:39:45;;;;;;;13.25;9.30;;;;;;;12.89;100.00;102479.34;5073003;28;20450;-60
2023/09/03 04:42:13;;;;;;;13.05;9.48;;;;;;;12.90;100.00;102483.69;5079858;28;20046;-61
2023/09/03 04:44:44;;;;;;;14.55;10.15;;;;;;;12.92;100.00;102478.34;5077881;28;20075;-61
2023/09/03 04:47:12;;;;;;;15.93;10.70;;;;;;;12.88;100.00;102477.63;5080229;28;20043;-61
2023/09/03 04:49:40;;;;;;;15.13;10.77;;;;;;;12.78;100.00;102466.66;5080599;28;20061;-61
2023/09/03 04:52:09;;;;;;;14.60;10.82;;;;;;;12.77;100.00;102479.94;5075588;28;20498;-61
2023/09/03 04:54:39;;;;;;;15.23;11.35;;;;;;;12.79;100.00;102489.50;5081186;28;20061;-61
2023/09/03 04:57:08;;;;;;;15.40;10.98;;;;;;;12.81;100.00;102487.63;5078332;28;20054;-61
2023/09/03 04:59:36;;;;;;;14.90;10.32;;;;;;;12.83;100.00;102488.41;5077451;28;20142;-60
2023/09/03 05:02:05;;;;;;;14.38;9.93;;;;;;;12.90;100.00;102496.03;5078035;28;20755;-60
2023/09/03 05:04:34;;;;;;;15.02;11.50;;;;;;;12.87;100.00;102499.69;5075617;28;20056;-61
2023/09/03 05:07:02;;;;;;;15.18;11.63;;;;;;;12.88;100.00;102501.38;5077199;28;20491;-61
2023/09/03 05:09:31;;;;;;;15.00;10.25;;;;;;;12.91;100.00;102508.28;5072968;28;20056;-60
2023/09/03 05:12:01;;;;;;;15.43;10.85;;;;;;;12.84;100.00;102505.09;5079632;28;20040;-61
2023/09/03 05:14:29;;;;;;;14.70;11.05;;;;;;;12.80;100.00;102503.53;5073475;28;20522;-61
2023/09/03 05:16:58;;;;;;;15.50;10.65;;;;;;;12.81;100.00;102511.38;5074425;28;20807;-61
2023/09/03 05:19:26;;;;;;;14.55;11.60;;;;;;;12.81;100.00;102514.03;5073566;28;20083;-60
2023/09/03 05:21:55;;;;;;;15.68;11.30;;;;;;;12.85;100.00;102520.00;5076616;28;20032;-60
2023/09/03 05:24:23;;;;;;;14.40;10.45;;;;;;;12.83;100.00;102527.16;5071201;28;20124;-60
2023/09/03 05:26:52;;;;;;;13.82;10.60;;;;;;;12.95;100.00;102542.44;5077077;28;20517;-61
2023/09/03 05:29:22;;;;;;;14.55;11.02;;;;;;;12.93;100.00;102544.25;5076725;28;20051;-60
2023/09/03 05:31:52;;;;;;;15.88;11.50;;;;;;;12.96;100.00;102544.09;5079529;28;20444;-60
2023/09/03 05:34:20;;;;;;;16.20;11.05;;;;;;;13.00;100.00;102540.38;5074735;28;20051;-60
2023/09/03 05:36:49;;;;;;;14.30;10.75;;;;;;;13.06;100.00;102533.09;5069349;28;20841;-61
2023/09/03 05:39:17;;;;;;;17.58;12.05;;;;;;;13.01;100.00;102534.19;5068854;28;20055;-61
2023/09/03 05:41:46;;;;;;;16.15;12.05;;;;;;;13.06;100.00;102536.63;5079148;28;20123;-60
2023/09/03 05:44:15;;;;;;;14.82;10.98;;;;;;;13.01;100.00;102525.41;5075256;28;20047;-60
2023/09/03 05:46:45;;;;;;;17.98;11.40;;;;;;;13.11;100.00;102531.09;5079308;28;20063;-60
2023/09/03 05:49:14;;;;;;;16.08;12.15;;;;;;;13.06;100.00;102526.06;5081937;28;20060;-60
2023/09/03 05:51:43;;;;;;;15.25;10.88;;;;;;;13.12;100.00;102531.03;5072149;28;20130;-61
2023/09/03 05:54:11;;;;;;;14.98;11.25;;;;;;;13.19;100.00;102543.00;5075338;28;20059;-60
2023/09/03 05:56:40;;;;;;;15.15;10.65;;;;;;;13.27;100.00;102561.13;5078100;28;20040;-60
2023/09/03 05:59:10;;;;;;;16.10;11.88;;;;;;;13.28;100.00;102560.19;5077145;28;20051;-60
2023/09/03 06:01:39;;;;;;;15.68;11.85;;;;;;;13.31;100.00;102572.41;5074417;28;20076;-61
2023/09/03 06:04:13;;;;;;;17.67;12.20;;;;;;;13.37;100.00;102569.47;5076224;28;20040;-60
2023/09/03 06:06:42;;;;;;;17.33;12.80;;;;;;;13.42;100.00;102575.38;5069302;28;20532;-61
2023/09/03 06:09:10;;;;;;;22.80;14.30;;;;;;;13.47;100.00;102583.94;5076013;28;20048;-60
2023/09/03 06:11:40;;;;;;;17.50;13.00;;;;;;;13.54;100.00;102597.72;5077648;28;20380;-62
2023/09/03 06:14:08;;;;;;;16.17;12.77;;;;;;;13.57;100.00;102597.56;5080308;28;20055;-61
2023/09/03 06:16:36;;;;;;;20.98;14.77;;;;;;;13.66;100.00;102597.09;5078509;28;20048;-60
2023/09/03 06:19:05;;;;;;;17.50;13.63;;;;;;;13.69;100.00;102596.94;5084425;28;20052;-60
2023/09/03 06:21:35;;;;;;;20.20;14.82;;;;;;;13.74;100.00;102603.78;5080566;28;20153;-60
2023/09/03 06:24:04;;;;;;;20.17;15.05;;;;;;;13.77;100.00;102609.78;5085677;28;20135;-60
2023/09/03 06:26:33;;;;;;;23.17;15.15;;;;;;;13.87;100.00;102610.16;5078674;28;20043;-60
2023/09/03 06:29:01;;;;;;;21.13;15.27;;;;;;;13.90;100.00;102617.94;5078937;28;20458;-60
2023/09/03 06:31:30;;;;;;;19.63;15.05;;;;;;;13.96;100.00;102614.09;5076621;28;20048;-60
2023/09/03 06:33:59;;;;;;;18.75;14.38;;;;;;;14.09;100.00;102617.00;5080194;28;20059;-60
2023/09/03 06:36:27;;;;;;;17.92;14.20;;;;;;;14.17;100.00;102620.94;5077109;28;20494;-61
2023/09/03 06:38:58;;;;;;;19.02;14.70;;;;;;;14.24;100.00;102616.19;5079222;28;20046;-60
2023/09/03 06:41:26;;;;;;;21.55;15.38;;;;;;;14.30;100.00;102626.47;5079726;28;20353;-60
2023/09/03 06:43:55;;;;;;;18.60;14.35;;;;;;;14.39;100.00;102630.38;5080796;28;20048;-60
2023/09/03 06:46:24;;;;;;;21.67;16.30;;;;;;;14.48;100.00;102632.56;5079097;28;20044;-61
2023/09/03 06:48:54;;;;;;;19.73;15.75;;;;;;;14.56;100.00;102634.81;5080546;28;20048;-60
2023/09/03 06:51:22;;;;;;;19.67;14.90;;;;;;;14.63;100.00;102638.84;5078755;28;20502;-60
2023/09/03 06:53:51;;;;;;;18.88;14.85;;;;;;;14.69;100.00;102642.97;5071614;28;20475;-60
2023/09/03 06:56:21;;;;;;;18.40;14.57;;;;;;;14.75;100.00;102636.47;5073107;28;20048;-60
2023/09/03 06:58:50;;;;;;;19.08;15.38;;;;;;;14.87;100.00;102633.16;5082830;28;20056;-60
2023/09/03 07:01:19;;;;;;;19.63;15.48;;;;;;;14.97;100.00;102623.75;5077516;28;20048;-62
2023/09/03 07:03:47;;;;;;;19.88;15.32;;;;;;;15.06;100.00;102629.50;5074502;28;20098;-49
2023/09/03 07:06:16;;;;;;;20.65;14.55;;;;;;;15.11;100.00;102630.09;5071042;28;20048;-52
2023/09/03 07:08:44;;;;;;;17.75;14.00;;;;;;;15.24;100.00;102636.38;5072093;28;20048;-50
2023/09/03 07:11:13;;;;;;;20.15;14.75;;;;;;;15.31;100.00;102643.06;5070498;28;20051;-51
2023/09/03 07:13:43;;;;;;;18.85;14.13;;;;;;;15.36;100.00;102640.97;5069889;28;20045;-51
2023/09/03 07:16:11;;;;;;;22.20;14.68;;;;;;;15.51;100.00;102638.41;5070881;28;20127;-50
2023/09/03 07:18:40;;;;;;;18.90;13.95;;;;;;;15.61;100.00;102644.91;5069814;28;20048;-52
2023/09/03 07:21:08;;;;;;;18.90;13.32;;;;;;;15.70;100.00;102647.00;5070735;28;20539;-53
2023/09/03 07:23:37;;;;;;;17.75;14.40;;;;;;;15.83;100.00;102654.28;5066965;28;21011;-52
2023/09/03 07:26:08;;;;;;;20.17;14.60;;;;;;;15.88;100.00;102655.72;5069397;28;20451;-53
2023/09/03 07:28:38;;;;;;;17.80;13.43;;;;;;;15.99;100.00;102663.06;5073345;28;20127;-53
2023/09/03 07:31:08;;;;;;;18.05;12.90;;;;;;;16.07;100.00;102667.03;5073167;28;20135;-54
2023/09/03 07:33:38;;;;;;;18.52;14.77;;;;;;;16.19;100.00;102661.81;5072484;28;20167;-53
2023/09/03 07:36:10;;;;;;;15.68;12.68;;;;;;;16.29;100.00;102664.81;5070232;28;20053;-51
2023/09/03 07:38:39;;;;;;;18.00;13.07;;;;;;;16.37;100.00;102665.19;5067795;28;20048;-51
2023/09/03 07:41:07;;;;;;;16.30;12.35;;;;;;;16.38;100.00;102666.03;5069664;28;20107;-52
2023/09/03 07:43:36;;;;;;;16.45;12.30;;;;;;;16.57;100.00;102668.41;5069346;28;20059;-53
2023/09/03 07:46:05;;;;;;;15.68;12.18;;;;;;;16.70;100.00;102673.81;5071079;28;20428;-53
2023/09/03 07:48:35;;;;;;;14.73;11.63;;;;;;;16.80;100.00;102682.06;5068731;28;20048;-53
2023/09/03 07:51:04;;;;;;;15.48;12.63;;;;;;;16.91;100.00;102679.63;5068516;28;20055;-54
2023/09/03 07:53:33;;;;;;;14.13;11.85;;;;;;;17.02;100.00;102686.91;5069168;28;20127;-53
2023/09/03 07:56:01;;;;;;;15.15;11.90;;;;;;;17.19;100.00;102675.19;5070271;28;20048;-53
2023/09/03 07:58:30;;;;;;;16.15;12.50;;;;;;;17.33;100.00;102679.59;5069335;28;20044;-54
2023/09/03 08:00:58;;;;;;;13.90;11.75;;;;;;;17.50;100.00;102682.03;5071689;28;20095;-51
2023/09/03 08:03:32;;;;;;;14.30;11.45;;;;;;;17.62;100.00;102692.84;5068746;28;20511;-55
2023/09/03 08:06:03;;;;;;;14.98;12.20;;;;;;;17.78;100.00;102687.31;5069131;28;20067;-55
2023/09/03 08:08:32;;;;;;;13.45;11.05;;;;;;;17.87;100.00;102692.91;5067458;28;20082;-53
2023/09/03 08:11:00;;;;;;;14.52;11.68;;;;;;;18.08;100.00;102689.78;5068999;28;20048;-54
2023/09/03 08:13:31;;;;;;;14.10;11.55;;;;;;;18.10;100.00;102690.50;5068271;28;20082;-55
2023/09/03 08:15:59;;;;;;;15.10;11.27;;;;;;;18.20;100.00;102690.72;5067374;28;20053;-55
2023/09/03 08:18:28;;;;;;;15.23;11.40;;;;;;;18.29;100.00;102689.25;5067648;28;20094;-64
2023/09/03 08:20:56;;;;;;;15.40;11.82;;;;;;;18.56;100.00;102687.31;5068247;28;20045;-64
2023/09/03 08:23:27;;;;;;;13.25;9.30;;;;;;;18.74;100.00;102684.31;5066451;28;20063;-65
2023/09/03 08:25:56;;;;;;;11.63;9.65;;;;;;;18.96;100.00;102686.31;5067996;28;20157;-65
2023/09/03 08:28:24;;;;;;;12.93;9.88;;;;;;;18.70;100.00;102683.69;5068533;28;20044;-63
2023/09/03 08:30:53;;;;;;;11.95;9.35;;;;;;;19.08;100.00;102687.25;5067883;28;20052;-64
2023/09/03 08:33:21;;;;;;;11.40;8.90;;;;;;;19.36;100.00;102694.09;5069569;28;20056;-65
2023/09/03 08:35:50;;;;;;;11.30;9.45;;;;;;;19.62;100.00;102696.66;5070337;28;20052;-65
2023/09/03 08:38:19;;;;;;;11.05;8.75;;;;;;;19.73;100.00;102693.19;5071428;28;20037;-65
2023/09/03 08:40:49;;;;;;;12.57;9.05;;;;;;;19.90;100.00;102695.44;5070766;28;20079;-65
2023/09/03 08:43:21;;;;;;;10.98;8.05;;;;;;;20.20;100.00;102695.91;5068001;28;20446;-65
2023/09/03 08:45:53;;;;;;;11.25;8.48;;;;;;;20.36;100.00;102691.06;5070092;28;20456;-64
2023/09/03 08:48:22;;;;;;;11.63;7.57;;;;;;;20.63;100.00;102686.31;5068207;28;20040;-65
2023/09/03 08:50:51;;;;;;;10.20;7.75;;;;;;;21.00;100.00;102686.09;5067962;28;20049;-65
2023/09/03 08:53:22;;;;;;;10.32;8.57;;;;;;;21.14;100.00;102685.81;5065845;28;20053;-65
2023/09/03 08:55:54;;;;;;;10.60;8.38;;;;;;;21.39;100.00;102690.03;5067630;28;20049;-65
2023/09/03 08:58:22;;;;;;;10.77;8.50;;;;;;;21.58;100.00;102691.19;5069373;28;20036;-64
2023/09/03 09:00:51;;;;;;;12.10;8.38;;;;;;;21.70;100.00;102695.50;5066752;28;20805;-66
2023/09/03 09:03:22;;;;;;;11.18;7.97;;;;;;;21.85;100.00;102698.72;5067397;28;20090;-65
2023/09/03 09:05:52;;;;;;;11.07;8.43;;;;;;;21.87;100.00;102702.13;5067450;28;20056;-65
2023/09/03 09:08:21;;;;;;;10.13;7.43;;;;;;;22.14;100.00;102698.06;5066904;28;20068;-65
2023/09/03 09:10:54;;;;;;;9.80;7.35;;;;;;;22.45;100.00;102692.78;5069878;28;20098;-66
2023/09/03 09:13:26;;;;;;;11.68;7.07;;;;;;;22.69;100.00;102700.50;5067024;28;20044;-66
2023/09/03 09:15:54;;;;;;;10.02;6.03;;;;;;;23.03;100.00;102697.50;5067859;28;20384;-66
2023/09/03 09:18:23;;;;;;;10.35;6.43;;;;;;;23.24;100.00;102696.59;5066975;28;20048;-66
2023/09/03 09:20:53;;;;;;;8.57;5.35;;;;;;;23.07;100.00;102701.63;5069851;28;20052;-66
2023/09/03 09:23:23;;;;;;;10.68;5.75;;;;;;;23.07;100.00;102700.75;5068595;28;20052;-66
2023/09/03 09:25:55;;;;;;;9.57;5.35;;;;;;;23.05;100.00;102700.88;5065295;28;20053;-65
2023/09/03 09:28:25;;;;;;;9.80;5.13;;;;;;;23.18;100.00;102707.88;5074197;28;20071;-66
2023/09/03 09:30:56;;;;;;;7.97;5.38;;;;;;;23.39;100.00;102700.56;5074796;28;20430;-66
2023/09/03 09:33:25;;;;;;;8.38;4.70;;;;;;;23.39;100.00;102699.72;5073514;28;20052;-66
2023/09/03 09:35:55;;;;;;;7.47;4.85;;;;;;;23.57;100.00;102690.00;5070536;28;20551;-66
2023/09/03 09:38:35;;;;;;;9.20;5.60;;;;;;;23.92;100.00;102693.09;5072374;28;20139;-66
2023/09/03 09:41:22;;;;;;;9.05;5.22;;;;;;;23.84;100.00;102695.63;5074785;28;20055;-66
2023/09/03 09:43:52;;;;;;;8.88;5.32;;;;;;;24.09;100.00;102700.41;5070173;28;20135;-66
2023/09/03 09:46:28;;;;;;;8.35;5.22;;;;;;;24.21;100.00;102694.88;5071441;28;20058;-66
2023/09/03 09:48:57;;;;;;;7.32;4.70;;;;;;;24.21;100.00;102698.38;5069735;28;21325;-66
2023/09/03 09:51:27;;;;;;;8.00;4.95;;;;;;;24.46;100.00;102699.59;5031422;28;20500;-66
2023/09/03 09:53:56;;;;;;;7.05;4.70;;;;;;;24.32;100.00;102693.84;5029998;28;20107;-66
2023/09/03 09:56:30;;;;;;;8.25;4.80;;;;;;;24.59;100.00;102701.09;5031321;28;20048;-66
2023/09/03 09:58:59;;;;;;;7.97;5.15;;;;;;;24.19;100.00;102705.75;5031464;28;20074;-66
2023/09/03 10:01:41;;;;;;;10.02;5.20;;;;;;;24.47;100.00;102706.69;5033561;28;20053;-66
2023/09/03 10:04:10;;;;;;;8.15;4.05;;;;;;;24.72;100.00;102708.84;5031054;28;20045;-66
2023/09/03 10:06:40;;;;;;;8.18;4.50;;;;;;;24.89;95.93;102710.75;5030226;28;20053;-66
2023/09/03 10:09:10;;;;;;;6.55;4.05;;;;;;;24.79;95.55;102707.28;5034529;28;20271;-66
2023/09/03 10:11:40;;;;;;;7.70;3.72;;;;;;;24.77;91.09;102712.81;5035008;28;20045;-66
2023/09/03 10:14:08;;;;;;;6.82;3.97;;;;;;;25.00;91.79;102707.00;5031559;28;20141;-66
2023/09/03 10:16:37;;;;;;;7.55;4.35;;;;;;;25.34;92.81;102711.78;5030375;28;20052;-66
2023/09/03 10:19:10;;;;;;;6.25;3.97;;;;;;;25.09;93.00;102714.19;5031402;28;20041;-65
2023/09/03 10:21:40;;;;;;;7.43;4.20;;;;;;;24.93;87.16;102717.53;5029262;28;20177;-66
2023/09/03 10:24:24;;;;;;;6.28;3.60;;;;;;;24.95;87.83;102712.00;5033714;28;20045;-66
2023/09/03 10:26:58;;;;;;;7.70;3.67;;;;;;;25.08;94.50;102712.47;5030685;28;20712;-66
2023/09/03 10:29:29;;;;;;;8.15;3.70;;;;;;;25.30;87.09;102713.91;5030652;28;20107;-65
2023/09/03 10:32:01;;;;;;;7.45;4.38;;;;;;;25.67;85.68;102711.25;5032597;28;20057;-65
2023/09/03 10:34:33;;;;;;;5.60;2.88;;;;;;;25.67;87.24;102695.91;5031981;28;20053;-64
2023/09/03 10:37:09;;;;;;;5.43;3.13;;;;;;;25.81;86.08;102703.44;5028937;28;20123;-65
2023/09/03 10:39:40;;;;;;;6.53;3.33;;;;;;;25.68;80.96;102697.63;5033240;28;20045;-65
2023/09/03 10:42:34;;;;;;;5.10;2.95;;;;;;;26.06;83.68;102697.44;5032694;28;20068;-65
2023/09/03 10:45:03;;;;;;;5.60;2.92;;;;;;;26.05;88.32;102688.47;5020938;28;20045;-65
2023/09/03 10:47:31;;;;;;;5.38;2.70;;;;;;;25.98;82.11;102692.78;5028658;28;20080;-65
2023/09/03 10:50:00;;;;;;;4.05;1.70;;;;;;;26.20;85.73;102687.91;5047846;28;20048;-64
2023/09/03 10:52:39;;;;;;;3.67;1.80;;;;;;;26.49;77.93;102698.31;5073671;28;20056;-64
2023/09/03 10:55:15;;;;;;;2.80;1.67;;;;;;;26.14;71.54;102690.22;5071263;28;20503;-64
2023/09/03 10:57:46;;;;;;;5.50;2.70;;;;;;;26.43;75.87;102694.44;5085646;28;20057;-65
2023/09/03 11:00:17;;;;;;;4.13;2.22;;;;;;;26.50;76.06;102689.25;5070467;28;20051;-64
2023/09/03 11:02:45;;;;;;;5.57;2.20;;;;;;;26.93;73.64;102686.59;5072337;28;20055;-64
2023/09/03 11:05:20;;;;;;;;;;;;;;;26.79;76.87;102686.19;5070951;28;20040;-65
2023/09/03 11:07:50;;;;;;;5.50;3.20;;;;;;;26.76;76.78;102688.38;5068412;28;19920;-64
2023/09/03 11:10:43;;;;;;;4.47;2.60;;;;;;;26.95;81.90;102679.97;5072997;28;20119;-64
2023/09/03 11:13:14;;;;;;;4.97;2.60;;;;;;;26.98;78.26;102676.13;5045117;28;20060;-64
2023/09/03 11:16:03;;;;;;;5.65;3.03;;;;;;;27.18;74.28;102681.22;5070145;28;20036;-64
2023/09/03 11:18:32;;;;;;;3.95;2.10;;;;;;;27.14;73.96;102686.94;5071861;28;20096;-64
2023/09/03 11:21:02;;;;;;;3.47;1.70;;;;;;;27.32;70.30;102683.25;5069790;28;20041;-65
2023/09/03 11:23:31;;;;;;;4.35;1.80;;;;;;;26.93;71.35;102682.03;5068623;28;20360;-65